createdAt,value
2023-03-18T00:01:48.325Z,6.03
2023-03-18T00:04:32.501Z,4.37
2023-03-18T00:07:16.670Z,7.90
2023-03-18T00:10:00.925Z,6.57
2023-03-18T00:12:46.635Z,9.30
2023-03-18T00:15:30.568Z,12.93
2023-03-18T00:18:14.560Z,8.03
2023-03-18T00:21:00.200Z,11.83
2023-03-18T00:23:45.152Z,9.77
2023-03-18T00:26:30.014Z,7.03
2023-03-18T00:29:15.693Z,5.43
2023-03-18T00:32:00.224Z,4.67
2023-03-18T00:34:43.990Z,3.50
2023-03-18T00:37:31.404Z,3.93
2023-03-18T00:40:20.559Z,3.37
2023-03-18T00:43:08.142Z,6.73
2023-03-18T00:45:53.352Z,3.87
2023-03-18T00:48:37.341Z,5.17
2023-03-18T00:51:24.011Z,4.70
2023-03-18T00:54:09.986Z,4.37
2023-03-18T00:56:54.048Z,4.63
2023-03-18T00:59:37.993Z,5.43
2023-03-18T01:02:23.795Z,4.03
2023-03-18T01:05:07.738Z,4.20
2023-03-18T01:07:51.916Z,4.60
2023-03-18T01:10:35.812Z,4.10
2023-03-18T01:13:19.667Z,7.07
2023-03-18T01:16:03.581Z,2.93
2023-03-18T01:18:48.843Z,3.57
2023-03-18T01:21:32.839Z,3.43
2023-03-18T01:24:18.202Z,4.40
2023-03-18T01:27:02.031Z,4.53
2023-03-18T01:29:46.818Z,3.17
2023-03-18T01:32:38.157Z,2.67
2023-03-18T01:35:23.670Z,3.53
2023-03-18T01:38:07.487Z,4.13
2023-03-18T01:40:52.350Z,3.30
2023-03-18T01:43:40.742Z,4.70
2023-03-18T01:46:40.240Z,3.30
2023-03-18T01:49:28.908Z,4.37
2023-03-18T01:52:19.049Z,4.60
2023-03-18T01:55:07.229Z,3.67
2023-03-18T01:57:51.775Z,4.80
2023-03-18T02:00:38.429Z,3.23
2023-03-18T02:03:23.312Z,4.23
2023-03-18T02:06:07.427Z,4.80
2023-03-18T02:08:53.189Z,4.20
2023-03-18T02:11:40.435Z,3.70
2023-03-18T02:14:27.814Z,4.53
2023-03-18T02:17:16.888Z,6.17
2023-03-18T02:20:14.903Z,4.03
2023-03-18T02:23:05.497Z,5.80
2023-03-18T02:25:55.357Z,5.43
2023-03-18T02:28:42.745Z,8.10
2023-03-18T02:31:27.674Z,4.53
2023-03-18T02:34:12.940Z,4.10
2023-03-18T02:36:58.426Z,4.87
2023-03-18T02:39:42.345Z,3.73
2023-03-18T02:42:30.771Z,6.07
2023-03-18T02:45:33.389Z,3.97
2023-03-18T02:48:33.224Z,4.17
2023-03-18T02:51:18.970Z,4.83
2023-03-18T02:54:06.991Z,5.60
2023-03-18T02:56:51.430Z,5.03
2023-03-18T02:59:35.360Z,6.43
2023-03-18T03:02:21.431Z,5.10
2023-03-18T03:05:05.733Z,4.73
2023-03-18T03:07:49.582Z,4.23
2023-03-18T03:10:34.219Z,3.30
2023-03-18T03:13:18.575Z,2.97
2023-03-18T03:16:02.607Z,8.40
2023-03-18T03:18:48.148Z,4.50
2023-03-18T03:21:32.495Z,4.53
2023-03-18T03:24:16.496Z,4.07
2023-03-18T03:27:00.307Z,7.10
2023-03-18T03:29:44.797Z,4.50
2023-03-18T03:32:29.156Z,4.10
2023-03-18T03:35:16.319Z,6.13
2023-03-18T03:38:00.143Z,4.43
2023-03-18T03:40:44.097Z,5.20
2023-03-18T03:43:28.717Z,4.77
2023-03-18T03:46:13.060Z,4.10
2023-03-18T03:48:57.196Z,4.40
2023-03-18T03:51:43.336Z,5.57
2023-03-18T03:54:27.841Z,4.17
2023-03-18T03:57:11.946Z,4.97
2023-03-18T03:59:56.392Z,6.47
2023-03-18T04:02:57.897Z,6.17
2023-03-18T04:05:43.347Z,4.70
2023-03-18T04:08:28.895Z,9.17
2023-03-18T04:11:12.837Z,5.40
2023-03-18T04:13:58.407Z,4.20
2023-03-18T04:16:44.896Z,3.07
2023-03-18T04:19:29.216Z,4.40
2023-03-18T04:22:13.604Z,4.57
2023-03-18T04:24:58.976Z,5.40
2023-03-18T04:27:44.127Z,5.63
2023-03-18T04:30:31.072Z,6.27
2023-03-18T04:33:22.803Z,5.43
2023-03-18T04:36:07.208Z,7.27
2023-03-18T04:38:51.684Z,7.43
2023-03-18T04:41:37.678Z,7.30
2023-03-18T04:44:22.988Z,4.87
2023-03-18T04:47:09.333Z,4.73
2023-03-18T04:49:53.770Z,5.17
2023-03-18T04:52:38.031Z,3.73
2023-03-18T04:55:22.528Z,6.07
2023-03-18T04:58:08.465Z,8.13
2023-03-18T05:00:57.712Z,6.00
2023-03-18T05:03:48.534Z,5.23
2023-03-18T05:06:34.788Z,5.57
2023-03-18T05:09:24.020Z,6.67
2023-03-18T05:12:14.873Z,6.60
2023-03-18T05:15:00.665Z,4.40
2023-03-18T05:17:45.344Z,4.70
2023-03-18T05:20:29.378Z,6.90
2023-03-18T05:23:13.596Z,4.90
2023-03-18T05:26:07.021Z,8.50
2023-03-18T05:28:52.709Z,6.40
2023-03-18T05:31:48.967Z,4.23
2023-03-18T05:34:34.707Z,6.07
2023-03-18T05:37:18.861Z,4.03
2023-03-18T05:40:14.777Z,11.00
2023-03-18T05:43:05.729Z,7.67
2023-03-18T05:45:56.354Z,9.03
2023-03-18T05:48:52.585Z,9.57
2023-03-18T05:51:39.430Z,7.50
2023-03-18T05:54:27.311Z,5.60
2023-03-18T05:57:11.389Z,5.53
2023-03-18T05:59:55.319Z,7.60
2023-03-18T06:02:41.213Z,5.40
2023-03-18T06:05:27.489Z,8.93
2023-03-18T06:08:12.158Z,7.00
2023-03-18T06:10:56.037Z,9.63
2023-03-18T06:13:40.371Z,53.63
2023-03-18T06:16:24.977Z,23.43
2023-03-18T06:19:11.954Z,7.10
2023-03-18T06:21:57.488Z,8.77
2023-03-18T06:24:41.596Z,6.10
2023-03-18T06:27:26.124Z,7.13
2023-03-18T06:30:14.621Z,4.77
2023-03-18T06:32:58.543Z,4.20
2023-03-18T06:35:44.229Z,9.20
2023-03-18T06:38:30.102Z,3.57
2023-03-18T06:41:16.392Z,6.10
2023-03-18T06:44:14.924Z,4.03
2023-03-18T06:46:58.883Z,5.80
2023-03-18T06:49:43.575Z,4.87
2023-03-18T06:52:33.772Z,6.50
2023-03-18T06:55:25.286Z,3.23
2023-03-18T06:58:09.169Z,4.77
2023-03-18T07:01:05.664Z,4.77
2023-03-18T07:03:55.128Z,7.13
2023-03-18T07:06:39.412Z,10.70
2023-03-18T07:09:24.621Z,9.50
2023-03-18T07:12:14.820Z,6.70
2023-03-18T07:15:00.148Z,10.70
2023-03-18T07:17:44.968Z,5.67
2023-03-18T07:20:30.007Z,6.93
2023-03-18T07:23:14.134Z,6.67
2023-03-18T07:25:58.055Z,7.10
2023-03-18T07:28:43.357Z,10.23
2023-03-18T07:31:28.026Z,12.60
2023-03-18T07:34:12.057Z,7.97
2023-03-18T07:36:56.573Z,8.20
2023-03-18T07:39:40.636Z,6.43
2023-03-18T07:42:24.955Z,7.83
2023-03-18T07:45:11.976Z,8.97
2023-03-18T07:47:56.222Z,6.80
2023-03-18T07:50:41.127Z,8.30
2023-03-18T07:53:25.432Z,7.17
2023-03-18T07:56:10.095Z,11.97
2023-03-18T07:58:54.315Z,5.63
2023-03-18T08:01:40.444Z,14.70
2023-03-18T08:04:25.352Z,9.03
2023-03-18T08:07:10.282Z,7.73
2023-03-18T08:09:54.462Z,7.30
2023-03-18T08:12:52.046Z,10.80
2023-03-18T08:15:36.911Z,8.63
2023-03-18T08:18:22.619Z,8.80
2023-03-18T08:21:08.002Z,12.13
2023-03-18T08:23:52.329Z,8.10
2023-03-18T08:26:37.033Z,14.83
2023-03-18T08:29:20.873Z,10.57
2023-03-18T08:32:05.016Z,9.33
2023-03-18T08:34:50.347Z,9.00
2023-03-18T08:37:34.243Z,11.33
2023-03-18T08:40:18.538Z,8.73
2023-03-18T08:43:02.214Z,8.10
2023-03-18T08:45:46.167Z,9.53
2023-03-18T08:48:30.928Z,9.20
2023-03-18T08:51:16.946Z,7.33
2023-03-18T08:54:00.831Z,8.97
2023-03-18T08:56:44.852Z,9.97
2023-03-18T08:59:28.792Z,10.60
2023-03-18T09:02:16.948Z,9.03
2023-03-18T09:05:00.819Z,9.73
2023-03-18T09:07:46.702Z,8.23
2023-03-18T09:10:31.412Z,8.47
2023-03-18T09:13:15.595Z,11.07
2023-03-18T09:15:59.692Z,10.43
2023-03-18T09:18:45.554Z,9.27
2023-03-18T09:21:30.460Z,9.27
2023-03-18T09:24:15.885Z,17.17
2023-03-18T09:27:00.066Z,9.87
2023-03-18T09:29:46.126Z,10.90
2023-03-18T09:32:29.958Z,7.53
2023-03-18T09:35:14.458Z,11.13
2023-03-18T09:37:58.525Z,9.83
2023-03-18T09:40:51.302Z,8.37
2023-03-18T09:43:50.927Z,11.03
2023-03-18T09:46:48.208Z,7.13
2023-03-18T09:49:57.462Z,9.40
2023-03-18T09:52:48.376Z,18.47
2023-03-18T09:55:40.307Z,9.37
2023-03-18T09:58:31.153Z,7.50
2023-03-18T10:01:16.819Z,9.17
2023-03-18T10:04:07.361Z,9.87
2023-03-18T10:06:54.929Z,10.43
2023-03-18T10:09:44.742Z,15.83
2023-03-18T10:12:33.360Z,10.17
2023-03-18T10:15:22.543Z,7.97
2023-03-18T10:18:14.129Z,8.40
2023-03-18T10:21:13.225Z,14.20
2023-03-18T10:24:07.221Z,7.77
2023-03-18T10:26:58.851Z,11.90
2023-03-18T10:29:47.700Z,11.13
2023-03-18T10:32:49.978Z,9.40
2023-03-18T10:35:39.924Z,8.63
2023-03-18T10:38:27.210Z,9.97
2023-03-18T10:41:17.387Z,11.30
2023-03-18T10:44:04.787Z,12.83
2023-03-18T10:46:52.515Z,9.83
2023-03-18T10:49:41.616Z,5.43
2023-03-18T10:52:34.821Z,10.47
2023-03-18T10:55:22.108Z,8.17
2023-03-18T10:58:16.647Z,8.27
2023-03-18T11:01:00.692Z,7.93
2023-03-18T11:03:48.702Z,7.13
2023-03-18T11:06:41.823Z,6.93
2023-03-18T11:09:31.982Z,8.07
2023-03-18T11:12:19.375Z,13.53
2023-03-18T11:15:11.586Z,10.83
2023-03-18T11:18:00.301Z,9.17
2023-03-18T11:20:47.643Z,8.40
2023-03-18T11:23:46.599Z,8.83
2023-03-18T11:26:31.492Z,9.37
2023-03-18T11:29:19.059Z,11.60
2023-03-18T11:32:04.418Z,7.60
2023-03-18T11:34:57.349Z,8.40
2023-03-18T11:37:42.453Z,9.47
2023-03-18T11:40:29.946Z,22.13
2023-03-18T11:43:20.700Z,12.67
2023-03-18T11:46:06.913Z,10.83
2023-03-18T11:48:51.388Z,7.57
2023-03-18T11:51:43.056Z,8.23
2023-03-18T11:55:03.514Z,9.17
2023-03-18T11:58:07.048Z,6.67
2023-03-18T12:00:57.081Z,13.23
2023-03-18T12:04:13.753Z,8.03
2023-03-18T12:07:13.750Z,9.20
2023-03-18T12:10:13.106Z,7.63
2023-03-18T12:13:13.615Z,6.63
2023-03-18T12:16:06.311Z,6.70
2023-03-18T12:19:02.462Z,7.30
2023-03-18T12:21:58.183Z,9.50
2023-03-18T12:24:59.422Z,9.10
2023-03-18T12:27:50.947Z,8.97
2023-03-18T12:31:02.646Z,9.33
2023-03-18T12:33:56.473Z,9.57
2023-03-18T12:36:54.292Z,8.73
2023-03-18T12:40:06.292Z,8.93
2023-03-18T12:43:03.202Z,7.47
2023-03-18T12:45:53.904Z,7.90
2023-03-18T12:48:44.811Z,7.93
2023-03-18T12:51:36.158Z,9.83
2023-03-18T12:54:25.985Z,9.63
2023-03-18T12:57:18.178Z,10.30
2023-03-18T13:00:10.539Z,9.03
2023-03-18T13:03:02.992Z,9.87
2023-03-18T13:05:53.271Z,11.83
2023-03-18T13:08:54.305Z,11.03
2023-03-18T13:11:59.814Z,11.83
2023-03-18T13:14:56.504Z,15.37
2023-03-18T13:17:42.284Z,14.33
2023-03-18T13:20:33.423Z,14.97
2023-03-18T13:23:40.137Z,13.50
2023-03-18T13:26:36.194Z,15.43
2023-03-18T13:29:31.122Z,14.87
2023-03-18T13:32:39.721Z,14.00
2023-03-18T13:35:50.772Z,19.90
2023-03-18T13:39:08.559Z,15.43
2023-03-18T13:42:14.802Z,15.27
2023-03-18T13:45:06.961Z,17.10
2023-03-18T13:47:59.567Z,20.23
2023-03-18T13:50:46.787Z,18.73
2023-03-18T13:53:34.002Z,17.57
2023-03-18T13:56:48.538Z,18.60
2023-03-18T13:59:47.463Z,18.60
2023-03-18T14:02:43.896Z,20.30
2023-03-18T14:05:42.717Z,20.27
2023-03-18T14:08:47.456Z,23.40
2023-03-18T14:11:50.527Z,23.13
2023-03-18T14:14:58.004Z,23.07
2023-03-18T14:17:48.951Z,19.03
2023-03-18T14:20:42.226Z,21.97
2023-03-18T14:23:40.602Z,22.30
2023-03-18T14:26:26.762Z,21.07
2023-03-18T14:29:24.057Z,26.37
2023-03-18T14:32:36.852Z,20.77
2023-03-18T14:35:28.902Z,25.33
2023-03-18T14:38:20.351Z,22.57
2023-03-18T14:41:15.410Z,26.67
2023-03-18T14:44:21.021Z,21.43
2023-03-18T14:47:07.983Z,22.23
2023-03-18T14:49:54.975Z,22.00
2023-03-18T14:52:42.654Z,25.40
2023-03-18T14:55:32.459Z,33.10
2023-03-18T14:58:19.527Z,27.27
2023-03-18T15:01:09.253Z,30.57
2023-03-18T15:03:56.189Z,32.40
2023-03-18T15:06:41.704Z,29.47
2023-03-18T15:09:28.457Z,38.10
2023-03-18T15:12:20.401Z,37.57
2023-03-18T15:15:07.063Z,38.53
2023-03-18T15:17:52.816Z,37.50
2023-03-18T15:20:37.725Z,38.37
2023-03-18T15:23:28.751Z,39.57
2023-03-18T15:26:21.660Z,40.77
2023-03-18T15:29:25.436Z,46.33
2023-03-18T15:32:18.024Z,42.97
2023-03-18T15:35:14.400Z,43.63
2023-03-18T15:38:16.205Z,41.50
2023-03-18T15:41:02.466Z,48.83
2023-03-18T15:43:47.685Z,42.10
2023-03-18T15:46:33.665Z,36.50
2023-03-18T15:49:19.321Z,40.37
2023-03-18T15:52:04.435Z,39.80
2023-03-18T15:54:49.836Z,42.83
2023-03-18T15:57:38.181Z,48.63
2023-03-18T16:00:22.957Z,48.93
2023-03-18T16:03:19.746Z,48.07
2023-03-18T16:06:05.439Z,45.37
2023-03-18T16:08:50.062Z,42.23
2023-03-18T16:11:36.967Z,38.67
2023-03-18T16:14:22.699Z,45.50
2023-03-18T16:17:07.144Z,44.80
2023-03-18T16:19:54.483Z,46.10
2023-03-18T16:22:39.755Z,53.57
2023-03-18T16:25:25.214Z,52.03
2023-03-18T16:28:16.865Z,51.87
2023-03-18T16:31:00.985Z,49.70
2023-03-18T16:33:46.387Z,51.27
2023-03-18T16:36:35.230Z,47.13
2023-03-18T16:39:22.334Z,51.27
2023-03-18T16:42:06.973Z,51.13
2023-03-18T16:44:51.101Z,48.60
2023-03-18T16:47:34.925Z,51.43
2023-03-18T16:50:22.487Z,43.03
2023-03-18T16:53:17.297Z,51.73
2023-03-18T16:56:05.668Z,36.23
2023-03-18T16:58:50.683Z,47.63
2023-03-18T17:01:34.588Z,54.07
2023-03-18T17:04:22.036Z,49.43
2023-03-18T17:07:06.185Z,48.47
2023-03-18T17:09:50.645Z,41.20
2023-03-18T17:12:35.992Z,47.60
2023-03-18T17:15:22.728Z,46.13
2023-03-18T17:18:08.171Z,49.40
2023-03-18T17:20:52.096Z,49.80
2023-03-18T17:23:35.891Z,38.33
2023-03-18T17:26:20.043Z,44.43
2023-03-18T17:29:05.348Z,44.53
2023-03-18T17:31:49.152Z,39.47
2023-03-18T17:34:33.386Z,43.43
2023-03-18T17:37:17.404Z,42.77
2023-03-18T17:40:01.365Z,41.47
2023-03-18T17:42:47.954Z,33.83
2023-03-18T17:45:35.312Z,38.97
2023-03-18T17:48:22.070Z,36.00
2023-03-18T17:51:08.964Z,31.67
2023-03-18T17:53:56.828Z,37.73
2023-03-18T17:56:40.691Z,34.10
2023-03-18T17:59:24.600Z,39.37
2023-03-18T18:02:14.853Z,40.70
2023-03-18T18:04:58.670Z,45.27
2023-03-18T18:07:44.774Z,39.47
2023-03-18T18:10:28.571Z,47.87
2023-03-18T18:13:16.773Z,42.53
2023-03-18T18:16:01.143Z,43.70
2023-03-18T18:18:49.483Z,50.37
2023-03-18T18:21:33.807Z,48.10
2023-03-18T18:24:23.769Z,51.20
2023-03-18T18:27:07.700Z,55.90
2023-03-18T18:29:51.951Z,56.23
2023-03-18T18:32:36.200Z,56.00
2023-03-18T18:35:23.335Z,45.77
2023-03-18T18:38:07.360Z,60.47
2023-03-18T18:40:53.133Z,62.77
2023-03-18T18:43:37.299Z,65.50
2023-03-18T18:46:22.017Z,63.07
2023-03-18T18:49:05.803Z,62.87
2023-03-18T18:51:53.446Z,69.37
2023-03-18T18:54:37.337Z,71.73
2023-03-18T18:57:26.853Z,69.20
2023-03-18T19:00:17.528Z,67.73
2023-03-18T19:03:01.524Z,69.50
2023-03-18T19:05:46.946Z,69.57
2023-03-18T19:08:34.987Z,70.27
2023-03-18T19:11:18.895Z,68.03
2023-03-18T19:14:18.789Z,72.13
2023-03-18T19:17:03.792Z,74.60
2023-03-18T19:19:47.974Z,73.53
2023-03-18T19:22:32.248Z,76.60
2023-03-18T19:25:18.097Z,72.73
2023-03-18T19:28:02.048Z,73.73
2023-03-18T19:30:45.957Z,70.30
2023-03-18T19:33:29.872Z,78.83
2023-03-18T19:36:22.111Z,62.87
2023-03-18T19:39:07.248Z,69.67
2023-03-18T19:41:52.556Z,76.83
2023-03-18T19:44:36.976Z,82.27
2023-03-18T19:47:23.302Z,72.97
2023-03-18T19:50:15.815Z,85.13
2023-03-18T19:53:00.313Z,82.63
2023-03-18T19:55:45.573Z,71.27
2023-03-18T19:58:31.222Z,79.20
2023-03-18T20:01:14.994Z,73.50
2023-03-18T20:04:00.911Z,74.73
2023-03-18T20:06:45.527Z,73.57
2023-03-18T20:09:29.823Z,82.23
2023-03-18T20:12:23.976Z,60.20
2023-03-18T20:15:15.379Z,80.83
2023-03-18T20:18:00.901Z,88.57
2023-03-18T20:20:47.864Z,83.80
2023-03-18T20:23:33.050Z,94.73
2023-03-18T20:26:17.034Z,86.77
2023-03-18T20:29:01.059Z,78.40
2023-03-18T20:31:46.514Z,90.87
2023-03-18T20:34:30.428Z,90.20
2023-03-18T20:37:29.821Z,89.70
2023-03-18T20:40:20.880Z,82.30
2023-03-18T20:43:04.771Z,93.57
2023-03-18T20:45:48.683Z,89.67
2023-03-18T20:48:33.924Z,97.07
2023-03-18T20:51:21.677Z,79.77
2023-03-18T20:54:17.738Z,89.20
2023-03-18T20:57:01.867Z,82.33
2023-03-18T20:59:46.327Z,94.50
2023-03-18T21:02:32.830Z,82.90
2023-03-18T21:05:18.260Z,95.20
2023-03-18T21:08:02.047Z,87.47
2023-03-18T21:10:46.362Z,79.97
2023-03-18T21:13:36.246Z,74.37
2023-03-18T21:16:21.180Z,91.93
2023-03-18T21:19:05.119Z,96.87
2023-03-18T21:21:50.490Z,90.93
2023-03-18T21:24:35.592Z,87.03
2023-03-18T21:27:21.715Z,84.53
2023-03-18T21:30:06.476Z,93.40
2023-03-18T21:32:51.606Z,76.63
2023-03-18T21:35:36.599Z,92.33
2023-03-18T21:38:21.898Z,93.83
2023-03-18T21:41:12.522Z,91.00
2023-03-18T21:43:56.739Z,91.57
2023-03-18T21:46:40.460Z,74.60
2023-03-18T21:49:24.415Z,100.60
2023-03-18T21:52:09.191Z,88.10
2023-03-18T21:54:54.583Z,96.23
2023-03-18T21:57:38.541Z,77.07
2023-03-18T22:00:22.608Z,77.20
2023-03-18T22:03:14.622Z,84.83
2023-03-18T22:05:58.673Z,81.73
2023-03-18T22:08:42.520Z,94.73
2023-03-18T22:11:28.853Z,87.57
2023-03-18T22:14:14.976Z,90.80
2023-03-18T22:16:58.825Z,92.07
2023-03-18T22:19:42.716Z,92.03
2023-03-18T22:22:28.444Z,87.13
2023-03-18T22:25:25.920Z,94.40
2023-03-18T22:28:12.807Z,85.23
2023-03-18T22:30:56.800Z,90.83
2023-03-18T22:33:40.733Z,89.90
2023-03-18T22:36:25.550Z,83.37
2023-03-18T22:39:10.286Z,87.47
2023-03-18T22:41:54.042Z,91.47
2023-03-18T22:44:39.342Z,76.30
2023-03-18T22:47:25.171Z,88.30
2023-03-18T22:50:10.088Z,86.97
2023-03-18T22:53:00.479Z,86.57
2023-03-18T22:55:44.416Z,80.63
2023-03-18T22:58:29.690Z,89.40
2023-03-18T23:01:18.975Z,82.43
2023-03-18T23:04:02.995Z,79.40
2023-03-18T23:06:47.086Z,83.20
2023-03-18T23:09:31.874Z,83.87
2023-03-18T23:12:16.088Z,89.03
2023-03-18T23:15:00.449Z,88.13
2023-03-18T23:17:46.419Z,90.33
2023-03-18T23:20:30.281Z,81.67
2023-03-18T23:23:14.990Z,86.17
2023-03-18T23:25:59.584Z,90.47
2023-03-18T23:28:45.553Z,88.20
2023-03-18T23:31:29.610Z,91.27
2023-03-18T23:34:14.855Z,86.77
2023-03-18T23:36:58.994Z,85.23
2023-03-18T23:39:46.214Z,84.33
2023-03-18T23:42:30.038Z,76.27
2023-03-18T23:45:14.385Z,89.47
2023-03-18T23:47:58.370Z,87.00
2023-03-18T23:50:43.630Z,72.57
2023-03-18T23:53:27.422Z,73.70
2023-03-18T23:56:11.872Z,72.70
2023-03-18T23:58:55.576Z,81.87
